createdAt,value
2023-05-10T00:02:25.578Z,12.61
2023-05-10T00:04:52.300Z,12.61
2023-05-10T00:07:18.870Z,12.57
2023-05-10T00:09:45.302Z,12.59
2023-05-10T00:12:11.771Z,12.59
2023-05-10T00:14:38.093Z,12.59
2023-05-10T00:17:04.515Z,12.59
2023-05-10T00:19:30.997Z,12.60
2023-05-10T00:21:57.388Z,12.60
2023-05-10T00:24:23.765Z,12.59
2023-05-10T00:26:50.174Z,12.62
2023-05-10T00:29:16.629Z,12.60
2023-05-10T00:31:43.014Z,12.63
2023-05-10T00:34:09.493Z,12.58
2023-05-10T00:36:35.903Z,12.58
2023-05-10T00:39:04.113Z,12.57
2023-05-10T00:41:33.580Z,12.58
2023-05-10T00:43:59.925Z,12.60
2023-05-10T00:46:26.936Z,12.63
2023-05-10T00:48:53.621Z,12.62
2023-05-10T00:51:20.141Z,12.61
2023-05-10T00:53:47.086Z,12.61
2023-05-10T00:56:13.924Z,12.60
2023-05-10T00:58:40.876Z,12.61
2023-05-10T01:01:08.650Z,12.59
2023-05-10T01:03:35.414Z,12.60
2023-05-10T01:06:01.833Z,12.59
2023-05-10T01:08:29.868Z,12.57
2023-05-10T01:10:56.519Z,12.59
2023-05-10T01:13:37.050Z,12.58
2023-05-10T01:16:04.314Z,12.62
2023-05-10T01:18:34.085Z,12.62
2023-05-10T01:21:12.476Z,12.63
2023-05-10T01:23:47.677Z,12.62
2023-05-10T01:26:26.170Z,12.64
2023-05-10T01:29:17.439Z,12.63
2023-05-10T01:32:17.257Z,12.64
2023-05-10T01:35:00.759Z,12.65
2023-05-10T01:37:39.069Z,12.59
2023-05-10T01:40:19.576Z,12.62
2023-05-10T01:43:16.843Z,12.61
2023-05-10T01:46:05.546Z,12.61
2023-05-10T01:48:33.217Z,12.60
2023-05-10T01:50:59.813Z,12.63
2023-05-10T01:53:27.506Z,12.64
2023-05-10T01:55:58.446Z,12.67
2023-05-10T01:58:31.354Z,12.64
2023-05-10T02:01:01.732Z,12.60
2023-05-10T02:03:29.472Z,12.63
2023-05-10T02:05:58.062Z,12.65
2023-05-10T02:08:25.881Z,12.64
2023-05-10T02:10:55.498Z,12.62
2023-05-10T02:13:24.085Z,12.63
2023-05-10T02:15:52.292Z,12.63
2023-05-10T02:18:19.321Z,12.60
2023-05-10T02:20:47.860Z,12.57
2023-05-10T02:23:17.821Z,12.56
2023-05-10T02:25:45.615Z,12.55
2023-05-10T02:28:13.932Z,12.54
2023-05-10T02:30:41.213Z,12.51
2023-05-10T02:33:08.464Z,12.53
2023-05-10T02:35:36.207Z,12.52
2023-05-10T02:38:03.564Z,12.52
2023-05-10T02:40:31.324Z,12.49
2023-05-10T02:43:00.073Z,12.47
2023-05-10T02:45:30.084Z,12.44
2023-05-10T02:47:57.330Z,12.46
2023-05-10T02:50:28.317Z,12.44
2023-05-10T02:53:00.397Z,12.42
2023-05-10T02:55:33.248Z,12.41
2023-05-10T02:58:01.961Z,12.39
2023-05-10T03:00:28.473Z,12.39
2023-05-10T03:02:54.957Z,12.30
2023-05-10T03:05:21.592Z,12.26
2023-05-10T03:07:48.690Z,12.18
2023-05-10T03:10:15.436Z,12.17
2023-05-10T03:12:52.016Z,12.14
2023-05-10T03:15:53.774Z,12.12
2023-05-10T03:18:24.369Z,12.09
2023-05-10T03:20:55.835Z,12.07
2023-05-10T03:23:31.309Z,12.10
2023-05-10T03:25:58.803Z,12.08
2023-05-10T03:28:26.922Z,12.01
2023-05-10T03:30:55.311Z,12.00
2023-05-10T03:33:22.035Z,12.01
2023-05-10T03:35:48.660Z,12.04
2023-05-10T03:38:15.318Z,12.05
2023-05-10T03:40:41.713Z,12.07
2023-05-10T03:43:08.096Z,12.05
2023-05-10T03:45:34.571Z,12.05
2023-05-10T03:48:00.994Z,12.08
2023-05-10T03:50:27.427Z,12.08
2023-05-10T03:52:54.869Z,12.08
2023-05-10T03:55:21.453Z,12.12
2023-05-10T03:57:50.375Z,12.13
2023-05-10T04:00:17.664Z,12.08
2023-05-10T04:02:46.073Z,12.12
2023-05-10T04:05:13.430Z,12.12
2023-05-10T04:07:39.806Z,12.12
2023-05-10T04:10:06.717Z,12.09
2023-05-10T04:12:33.106Z,12.11
2023-05-10T04:14:59.532Z,12.14
2023-05-10T04:17:26.110Z,12.15
2023-05-10T04:19:55.385Z,12.16
2023-05-10T04:22:21.749Z,12.18
2023-05-10T04:24:48.175Z,12.17
2023-05-10T04:27:14.518Z,12.18
2023-05-10T04:29:41.036Z,12.20
2023-05-10T04:32:07.483Z,12.21
2023-05-10T04:34:35.106Z,12.21
2023-05-10T04:37:01.568Z,12.19
2023-05-10T04:39:27.953Z,12.21
2023-05-10T04:41:54.317Z,12.22
2023-05-10T04:44:20.653Z,12.18
2023-05-10T04:46:47.197Z,12.19
2023-05-10T04:49:13.631Z,12.20
2023-05-10T04:51:39.998Z,12.22
2023-05-10T04:54:07.008Z,12.21
2023-05-10T04:56:33.790Z,12.23
2023-05-10T04:59:00.172Z,12.26
2023-05-10T05:01:26.648Z,12.28
2023-05-10T05:03:53.993Z,12.30
2023-05-10T05:06:22.097Z,12.27
2023-05-10T05:08:50.406Z,12.30
2023-05-10T05:11:17.568Z,12.30
2023-05-10T05:13:53.169Z,12.28
2023-05-10T05:16:19.618Z,12.32
2023-05-10T05:18:48.507Z,12.34
2023-05-10T05:21:19.275Z,12.34
2023-05-10T05:23:45.800Z,12.36
2023-05-10T05:26:12.145Z,12.35
2023-05-10T05:28:38.704Z,12.38
2023-05-10T05:31:08.979Z,12.39
2023-05-10T05:33:35.901Z,12.41
2023-05-10T05:36:03.812Z,12.43
2023-05-10T05:38:30.376Z,12.45
2023-05-10T05:40:56.805Z,12.43
2023-05-10T05:43:23.256Z,12.43
2023-05-10T05:45:50.283Z,12.46
2023-05-10T05:48:16.732Z,12.43
2023-05-10T05:50:43.105Z,12.43
2023-05-10T05:53:09.951Z,12.40
2023-05-10T05:55:36.389Z,12.31
2023-05-10T05:58:02.760Z,12.34
2023-05-10T06:00:29.460Z,12.36
2023-05-10T06:02:55.935Z,12.35
2023-05-10T06:05:22.712Z,12.30
2023-05-10T06:07:49.081Z,12.30
2023-05-10T06:10:15.534Z,12.32
2023-05-10T06:12:41.999Z,12.32
2023-05-10T06:15:09.089Z,12.28
2023-05-10T06:17:35.565Z,12.24
2023-05-10T06:20:02.132Z,12.25
2023-05-10T06:22:28.509Z,12.24
2023-05-10T06:24:54.812Z,12.32
2023-05-10T06:27:21.249Z,12.34
2023-05-10T06:29:48.315Z,12.26
2023-05-10T06:32:16.779Z,12.29
2023-05-10T06:34:44.359Z,12.32
2023-05-10T06:37:10.707Z,12.44
2023-05-10T06:39:37.723Z,12.47
2023-05-10T06:42:05.512Z,12.47
2023-05-10T06:44:31.929Z,12.49
2023-05-10T06:46:58.338Z,12.40
2023-05-10T06:49:24.778Z,12.42
2023-05-10T06:51:51.144Z,12.50
2023-05-10T06:54:17.614Z,12.54
2023-05-10T06:56:44.101Z,12.56
2023-05-10T06:59:10.688Z,12.59
2023-05-10T07:01:37.142Z,12.65
2023-05-10T07:04:03.629Z,12.59
2023-05-10T07:06:35.757Z,12.56
2023-05-10T07:09:02.120Z,12.57
2023-05-10T07:11:28.532Z,12.50
2023-05-10T07:13:54.954Z,12.50
2023-05-10T07:16:24.372Z,12.59
2023-05-10T07:18:51.570Z,12.69
2023-05-10T07:21:18.174Z,12.74
2023-05-10T07:23:45.334Z,12.75
2023-05-10T07:26:12.547Z,12.71
2023-05-10T07:28:40.050Z,12.68
2023-05-10T07:31:06.764Z,12.62
2023-05-10T07:33:33.148Z,12.57
2023-05-10T07:35:59.564Z,12.52
2023-05-10T07:38:26.136Z,12.51
2023-05-10T07:40:52.543Z,12.62
2023-05-10T07:43:18.979Z,12.68
2023-05-10T07:45:45.368Z,12.71
2023-05-10T07:48:12.073Z,12.73
2023-05-10T07:50:38.384Z,12.72
2023-05-10T07:53:04.788Z,12.78
2023-05-10T07:55:31.085Z,12.83
2023-05-10T07:57:57.700Z,12.87
2023-05-10T08:00:24.132Z,12.84
2023-05-10T08:02:50.671Z,12.83
2023-05-10T08:05:17.377Z,12.82
2023-05-10T08:07:43.992Z,12.81
2023-05-10T08:10:14.540Z,12.77
2023-05-10T08:12:41.110Z,12.76
2023-05-10T08:15:10.329Z,12.80
2023-05-10T08:17:36.864Z,12.82
2023-05-10T08:20:03.553Z,12.82
2023-05-10T08:22:30.001Z,12.83
2023-05-10T08:24:56.419Z,12.87
2023-05-10T08:27:22.829Z,12.96
2023-05-10T08:29:50.455Z,13.00
2023-05-10T08:32:17.505Z,12.94
2023-05-10T08:34:43.994Z,12.88
2023-05-10T08:37:13.823Z,12.92
2023-05-10T08:39:40.366Z,12.94
2023-05-10T08:42:07.720Z,12.92
2023-05-10T08:44:36.610Z,12.94
2023-05-10T08:47:06.491Z,12.96
2023-05-10T08:49:33.946Z,13.00
2023-05-10T08:52:05.249Z,13.02
2023-05-10T08:54:35.594Z,13.01
2023-05-10T08:57:02.340Z,13.05
2023-05-10T08:59:29.480Z,13.13
2023-05-10T09:01:58.926Z,13.20
2023-05-10T09:04:25.947Z,13.31
2023-05-10T09:06:52.767Z,13.41
2023-05-10T09:09:20.771Z,13.52
2023-05-10T09:11:47.575Z,13.60
2023-05-10T09:14:14.493Z,13.68
2023-05-10T09:16:41.334Z,13.67
2023-05-10T09:19:09.548Z,13.82
2023-05-10T09:21:39.189Z,14.01
2023-05-10T09:24:07.697Z,14.15
2023-05-10T09:26:34.522Z,14.26
2023-05-10T09:29:01.272Z,14.32
2023-05-10T09:31:51.921Z,14.53
2023-05-10T09:34:20.044Z,14.71
2023-05-10T09:36:57.340Z,14.93
2023-05-10T09:39:37.779Z,14.91
2023-05-10T09:42:09.548Z,14.88
2023-05-10T09:44:36.703Z,14.88
2023-05-10T09:47:03.985Z,14.87
2023-05-10T09:49:30.921Z,14.97
2023-05-10T09:52:03.350Z,14.99
2023-05-10T09:54:29.819Z,14.88
2023-05-10T09:56:56.381Z,14.82
2023-05-10T09:59:25.632Z,14.85
2023-05-10T10:01:52.432Z,14.79
2023-05-10T10:04:19.050Z,14.73
2023-05-10T10:06:45.604Z,14.69
2023-05-10T10:09:12.107Z,14.66
2023-05-10T10:11:39.723Z,14.59
2023-05-10T10:14:06.448Z,14.63
2023-05-10T10:16:33.426Z,14.69
2023-05-10T10:18:59.973Z,14.73
2023-05-10T10:21:26.692Z,14.77
2023-05-10T10:23:54.046Z,14.80
2023-05-10T10:26:21.970Z,14.81
2023-05-10T10:29:08.416Z,14.82
2023-05-10T10:31:42.950Z,14.84
2023-05-10T10:34:27.494Z,14.80
2023-05-10T10:36:55.206Z,14.76
2023-05-10T10:39:21.651Z,14.71
2023-05-10T10:41:51.944Z,14.75
2023-05-10T10:44:27.362Z,14.79
2023-05-10T10:47:10.240Z,14.86
2023-05-10T10:49:42.764Z,14.85
2023-05-10T10:52:32.043Z,14.87
2023-05-10T10:55:02.768Z,14.84
2023-05-10T10:57:32.022Z,14.94
2023-05-10T11:00:23.352Z,15.01
2023-05-10T11:03:15.379Z,15.01
2023-05-10T11:05:48.652Z,15.02
2023-05-10T11:08:22.820Z,15.03
2023-05-10T11:10:54.534Z,14.96
2023-05-10T11:13:41.581Z,14.97
2023-05-10T11:16:22.505Z,14.85
2023-05-10T11:19:07.882Z,14.79
2023-05-10T11:21:45.244Z,14.82
2023-05-10T11:24:18.524Z,14.89
2023-05-10T11:26:45.245Z,15.09
2023-05-10T11:29:14.077Z,15.41
2023-05-10T11:31:47.851Z,15.72
2023-05-10T11:34:25.353Z,15.99
2023-05-10T11:36:54.790Z,16.23
2023-05-10T11:39:22.312Z,16.66
2023-05-10T11:41:50.465Z,17.20
2023-05-10T11:44:17.064Z,17.36
2023-05-10T11:46:43.834Z,17.34
2023-05-10T11:49:11.120Z,17.17
2023-05-10T11:51:37.774Z,16.87
2023-05-10T11:54:10.038Z,16.67
2023-05-10T11:56:37.660Z,16.47
2023-05-10T11:59:04.686Z,16.23
2023-05-10T12:01:32.006Z,16.06
2023-05-10T12:04:01.143Z,15.90
2023-05-10T12:06:32.179Z,15.91
2023-05-10T12:08:59.322Z,16.05
2023-05-10T12:11:28.146Z,16.22
2023-05-10T12:13:55.777Z,16.33
2023-05-10T12:16:24.793Z,16.43
2023-05-10T12:18:52.761Z,16.71
2023-05-10T12:21:20.938Z,16.82
2023-05-10T12:23:50.540Z,16.81
2023-05-10T12:26:17.112Z,16.78
2023-05-10T12:28:43.651Z,16.89
2023-05-10T12:31:10.091Z,17.12
2023-05-10T12:33:44.499Z,17.27
2023-05-10T12:36:12.850Z,17.58
2023-05-10T12:38:43.185Z,18.09
2023-05-10T12:41:12.095Z,18.25
2023-05-10T12:43:39.657Z,18.68
2023-05-10T12:46:08.087Z,18.77
2023-05-10T12:48:35.457Z,18.50
2023-05-10T12:51:03.350Z,18.07
2023-05-10T12:53:30.043Z,17.74
2023-05-10T12:55:57.083Z,17.60
2023-05-10T12:58:34.978Z,17.45
2023-05-10T13:01:03.238Z,17.14
2023-05-10T13:03:29.826Z,17.01
2023-05-10T13:05:56.171Z,16.85
2023-05-10T13:08:22.593Z,16.55
2023-05-10T13:10:49.337Z,16.44
2023-05-10T13:13:16.667Z,16.23
2023-05-10T13:15:43.229Z,16.06
2023-05-10T13:18:09.650Z,15.87
2023-05-10T13:20:36.087Z,15.57
2023-05-10T13:23:03.484Z,15.21
2023-05-10T13:25:29.937Z,14.93
2023-05-10T13:27:56.429Z,14.57
2023-05-10T13:30:23.017Z,14.28
2023-05-10T13:32:49.481Z,14.15
2023-05-10T13:35:16.421Z,13.99
2023-05-10T13:37:42.789Z,13.87
2023-05-10T13:40:09.457Z,13.86
2023-05-10T13:42:35.804Z,13.83
2023-05-10T13:45:05.269Z,13.77
2023-05-10T13:47:31.915Z,13.74
2023-05-10T13:49:58.709Z,13.63
2023-05-10T13:52:25.073Z,13.55
2023-05-10T13:54:53.216Z,13.55
2023-05-10T13:57:19.576Z,13.56
2023-05-10T13:59:45.944Z,13.60
2023-05-10T14:02:13.892Z,13.55
2023-05-10T14:04:40.443Z,13.50
2023-05-10T14:07:06.804Z,13.49
2023-05-10T14:09:33.133Z,13.54
2023-05-10T14:11:59.702Z,13.57
2023-05-10T14:14:26.263Z,13.52
2023-05-10T14:16:52.902Z,13.53
2023-05-10T14:19:19.409Z,13.48
2023-05-10T14:21:45.879Z,13.50
2023-05-10T14:24:12.837Z,13.57
2023-05-10T14:26:39.217Z,13.58
2023-05-10T14:29:05.587Z,13.57
2023-05-10T14:31:32.396Z,13.61
2023-05-10T14:33:58.772Z,13.67
2023-05-10T14:36:25.458Z,13.72
2023-05-10T14:38:52.487Z,13.84
2023-05-10T14:41:18.878Z,13.87
2023-05-10T14:43:45.321Z,13.89
2023-05-10T14:46:12.036Z,13.84
2023-05-10T14:48:38.469Z,13.83
2023-05-10T14:51:04.841Z,13.95
2023-05-10T14:53:31.267Z,13.99
2023-05-10T14:55:58.301Z,13.95
2023-05-10T14:58:24.743Z,13.98
2023-05-10T15:00:51.295Z,13.94
2023-05-10T15:03:18.237Z,14.07
2023-05-10T15:05:45.060Z,14.20
2023-05-10T15:08:13.469Z,14.27
2023-05-10T15:10:40.503Z,14.21
2023-05-10T15:13:07.077Z,14.30
2023-05-10T15:15:33.584Z,14.42
2023-05-10T15:18:00.138Z,14.51
2023-05-10T15:20:26.756Z,14.72
2023-05-10T15:22:53.131Z,14.89
2023-05-10T15:25:20.944Z,14.92
2023-05-10T15:27:47.331Z,14.95
2023-05-10T15:30:13.894Z,14.97
2023-05-10T15:32:40.980Z,15.05
2023-05-10T15:35:09.390Z,15.07
2023-05-10T15:37:35.833Z,14.98
2023-05-10T15:40:04.862Z,14.98
2023-05-10T15:42:32.577Z,15.04
2023-05-10T15:44:59.375Z,15.15
2023-05-10T15:47:27.088Z,15.09
2023-05-10T15:49:53.517Z,15.10
2023-05-10T15:52:21.547Z,15.15
2023-05-10T15:54:47.874Z,15.26
2023-05-10T15:57:14.213Z,15.26
2023-05-10T15:59:40.649Z,15.19
2023-05-10T16:02:08.723Z,15.17
2023-05-10T16:04:35.126Z,15.04
2023-05-10T16:07:01.483Z,15.03
2023-05-10T16:09:28.000Z,14.97
2023-05-10T16:11:54.548Z,14.88
2023-05-10T16:14:24.666Z,14.77
2023-05-10T16:16:51.537Z,14.75
2023-05-10T16:19:18.517Z,14.70
2023-05-10T16:21:45.059Z,14.73
2023-05-10T16:24:12.067Z,14.75
2023-05-10T16:26:41.008Z,14.77
2023-05-10T16:29:08.954Z,14.77
2023-05-10T16:31:35.466Z,14.79
2023-05-10T16:34:02.059Z,14.82
2023-05-10T16:36:29.527Z,14.88
2023-05-10T16:38:56.101Z,14.94
2023-05-10T16:41:22.654Z,15.01
2023-05-10T16:43:49.286Z,15.16
2023-05-10T16:46:16.078Z,15.23
2023-05-10T16:48:42.681Z,15.36
2023-05-10T16:51:09.424Z,15.45
2023-05-10T16:53:36.274Z,15.46
2023-05-10T16:56:03.531Z,15.38
2023-05-10T16:58:29.961Z,15.34
2023-05-10T17:00:56.440Z,15.40
2023-05-10T17:03:23.421Z,15.54
2023-05-10T17:05:50.072Z,15.60
2023-05-10T17:08:16.533Z,15.67
2023-05-10T17:10:43.094Z,15.75
2023-05-10T17:13:10.535Z,15.76
2023-05-10T17:15:38.447Z,15.70
2023-05-10T17:18:05.434Z,15.67
2023-05-10T17:20:31.970Z,15.66
2023-05-10T17:22:58.498Z,15.57
2023-05-10T17:25:24.853Z,15.51
2023-05-10T17:27:51.648Z,15.47
2023-05-10T17:30:22.476Z,15.42
2023-05-10T17:32:48.869Z,15.33
2023-05-10T17:35:15.498Z,15.29
2023-05-10T17:37:42.108Z,15.17
2023-05-10T17:40:10.067Z,15.12
2023-05-10T17:42:38.969Z,15.06
2023-05-10T17:45:05.861Z,15.06
2023-05-10T17:47:32.479Z,15.04
2023-05-10T17:49:58.949Z,15.03
2023-05-10T17:52:25.698Z,15.00
2023-05-10T17:54:53.267Z,14.89
2023-05-10T17:57:20.765Z,14.87
2023-05-10T17:59:47.503Z,14.85
2023-05-10T18:02:13.986Z,14.80
2023-05-10T18:04:41.131Z,14.78
2023-05-10T18:07:08.571Z,14.74
2023-05-10T18:09:35.344Z,14.64
2023-05-10T18:12:02.917Z,14.67
2023-05-10T18:14:39.912Z,14.63
2023-05-10T18:17:07.530Z,14.65
2023-05-10T18:19:34.157Z,14.59
2023-05-10T18:22:00.562Z,14.59
2023-05-10T18:24:40.176Z,14.54
2023-05-10T18:27:08.725Z,14.53
2023-05-10T18:29:36.095Z,14.46
2023-05-10T18:32:02.530Z,14.45
2023-05-10T18:34:28.939Z,14.45
2023-05-10T18:36:55.799Z,14.41
2023-05-10T18:39:22.176Z,14.33
2023-05-10T18:41:50.110Z,14.28
2023-05-10T18:44:16.495Z,14.25
2023-05-10T18:46:42.918Z,14.20
2023-05-10T18:49:09.555Z,14.25
2023-05-10T18:51:35.998Z,14.26
2023-05-10T18:54:02.411Z,14.20
2023-05-10T18:56:28.803Z,14.13
2023-05-10T18:58:55.220Z,14.15
2023-05-10T19:01:21.937Z,14.11
2023-05-10T19:03:48.345Z,14.11
2023-05-10T19:06:14.822Z,14.06
2023-05-10T19:08:41.221Z,14.04
2023-05-10T19:11:07.637Z,14.03
2023-05-10T19:13:34.261Z,14.01
2023-05-10T19:16:12.476Z,13.99
2023-05-10T19:18:39.812Z,14.00
2023-05-10T19:21:07.588Z,13.97
2023-05-10T19:23:34.830Z,13.97
2023-05-10T19:26:01.534Z,13.96
2023-05-10T19:28:28.223Z,13.95
2023-05-10T19:30:54.608Z,13.94
2023-05-10T19:33:28.349Z,13.90
2023-05-10T19:35:55.393Z,13.90
2023-05-10T19:38:22.833Z,13.90
2023-05-10T19:40:50.634Z,13.90
2023-05-10T19:43:17.134Z,13.90
2023-05-10T19:45:44.000Z,13.90
2023-05-10T19:48:11.064Z,13.86
2023-05-10T19:50:38.349Z,13.84
2023-05-10T19:53:04.857Z,13.82
2023-05-10T19:55:32.135Z,13.76
2023-05-10T19:58:00.597Z,13.75
2023-05-10T20:00:29.924Z,13.68
2023-05-10T20:02:56.453Z,13.64
2023-05-10T20:05:23.320Z,13.64
2023-05-10T20:07:50.329Z,13.64
2023-05-10T20:10:17.601Z,13.60
2023-05-10T20:12:52.801Z,13.58
2023-05-10T20:15:21.795Z,13.57
2023-05-10T20:17:49.489Z,13.54
2023-05-10T20:20:16.651Z,13.56
2023-05-10T20:22:45.473Z,13.50
2023-05-10T20:25:12.312Z,13.52
2023-05-10T20:27:38.967Z,13.56
2023-05-10T20:30:06.242Z,13.59
2023-05-10T20:32:32.999Z,13.57
2023-05-10T20:34:59.636Z,13.60
2023-05-10T20:37:27.514Z,13.65
2023-05-10T20:39:54.672Z,13.64
2023-05-10T20:42:22.112Z,13.64
2023-05-10T20:44:48.674Z,13.63
2023-05-10T20:47:15.783Z,13.64
2023-05-10T20:49:42.773Z,13.66
2023-05-10T20:52:09.481Z,13.64
2023-05-10T20:54:35.915Z,13.62
2023-05-10T20:57:02.363Z,13.57
2023-05-10T20:59:29.287Z,13.62
2023-05-10T21:01:57.400Z,13.62
2023-05-10T21:04:25.462Z,13.60
2023-05-10T21:06:52.947Z,13.61
2023-05-10T21:09:19.462Z,13.53
2023-05-10T21:11:45.873Z,13.52
2023-05-10T21:14:12.309Z,13.50
2023-05-10T21:16:38.944Z,13.50
2023-05-10T21:19:07.074Z,13.48
2023-05-10T21:21:33.775Z,13.47
2023-05-10T21:24:00.188Z,13.50
2023-05-10T21:26:26.604Z,13.40
2023-05-10T21:28:53.222Z,13.43
2023-05-10T21:31:19.636Z,13.46
2023-05-10T21:33:46.042Z,13.41
2023-05-10T21:36:12.482Z,13.39
2023-05-10T21:38:39.368Z,13.36
2023-05-10T21:41:08.542Z,13.35
2023-05-10T21:43:35.003Z,13.27
2023-05-10T21:46:01.533Z,13.27
2023-05-10T21:48:28.381Z,13.23
2023-05-10T21:50:55.057Z,13.20
2023-05-10T21:53:22.222Z,13.21
2023-05-10T21:55:48.607Z,13.21
2023-05-10T21:58:14.957Z,13.18
2023-05-10T22:00:41.334Z,13.18
2023-05-10T22:03:07.868Z,13.18
2023-05-10T22:05:34.371Z,13.18
2023-05-10T22:08:00.930Z,13.15
2023-05-10T22:10:27.401Z,13.09
2023-05-10T22:12:53.856Z,13.10
2023-05-10T22:15:20.264Z,13.00
2023-05-10T22:17:46.688Z,13.00
2023-05-10T22:20:13.247Z,13.03
2023-05-10T22:22:39.662Z,13.00
2023-05-10T22:25:07.346Z,12.97
2023-05-10T22:27:34.237Z,12.96
2023-05-10T22:30:00.827Z,12.98
2023-05-10T22:32:27.185Z,12.98
2023-05-10T22:34:53.600Z,12.97
2023-05-10T22:37:20.030Z,12.99
2023-05-10T22:39:46.750Z,12.97
2023-05-10T22:42:13.176Z,13.01
2023-05-10T22:44:39.641Z,13.02
2023-05-10T22:47:06.749Z,13.05
2023-05-10T22:49:33.679Z,12.96
2023-05-10T22:52:00.570Z,12.84
2023-05-10T22:54:27.820Z,12.88
2023-05-10T22:56:54.434Z,12.92
2023-05-10T22:59:21.028Z,12.90
2023-05-10T23:01:48.860Z,12.84
2023-05-10T23:04:15.781Z,12.82
2023-05-10T23:06:42.265Z,12.83
2023-05-10T23:09:08.955Z,12.82
2023-05-10T23:11:35.323Z,12.81
2023-05-10T23:14:01.709Z,12.80
2023-05-10T23:16:28.117Z,12.81
2023-05-10T23:18:54.770Z,12.80
2023-05-10T23:21:21.470Z,12.72
2023-05-10T23:23:47.974Z,12.75
2023-05-10T23:26:14.432Z,12.68
2023-05-10T23:28:40.960Z,12.69
2023-05-10T23:31:07.307Z,12.74
2023-05-10T23:33:33.813Z,12.76
2023-05-10T23:36:00.397Z,12.76
2023-05-10T23:38:26.944Z,12.70
2023-05-10T23:40:53.420Z,12.72
2023-05-10T23:43:20.706Z,12.74
2023-05-10T23:45:57.684Z,12.74
2023-05-10T23:48:24.392Z,12.74
2023-05-10T23:50:50.927Z,12.76
2023-05-10T23:53:17.435Z,12.78
2023-05-10T23:55:44.370Z,12.74
2023-05-10T23:58:11.632Z,12.76
